SHU266 KBOI-KASE
Flight info
| Callsign | SHU266 |
|---|---|
| Flight time | 1h 22m |
| Altitude | 29000 |
| Route | ROARR EKR DBL |
| Aircraft | RJ1H/M-SDFGIRWY/LB1 |
Departure
| Time | 2026-04-26 16:19 |
|---|---|
| Airport | Boise Air Terminal/Gowen Field (KBOI) |
Arrival
| Time | 2026-04-26 17:41 |
|---|---|
| Airport | Aspen-Pitkin County Airport (Sardy Field) (KASE) |
| Time | Latitude | Longitude | Altitude | Speed | Heading |
|---|---|---|---|---|---|
| 2026-04-26 15:51 | 43.56696 | -116.21970 | 2853 ft | 0 kts | 32° |
| 2026-04-26 16:08 | 43.56677 | -116.21986 | 2857 ft | 3 kts | 32° |
| 2026-04-26 16:08 | 43.56663 | -116.21999 | 2852 ft | 3 kts | 47° |
| 2026-04-26 16:09 | 43.56655 | -116.22022 | 2853 ft | 3 kts | 82° |
| 2026-04-26 16:09 | 43.56656 | -116.22050 | 2853 ft | 3 kts | 102° |
| 2026-04-26 16:09 | 43.56661 | -116.22073 | 2853 ft | 2 kts | 113° |
| 2026-04-26 16:09 | 43.56664 | -116.22081 | 2852 ft | 0 kts | 114° |
| 2026-04-26 16:12 | 43.56600 | -116.22068 | 2854 ft | 11 kts | 158° |
| 2026-04-26 16:13 | 43.56557 | -116.21975 | 2850 ft | 13 kts | 116° |
| 2026-04-26 16:13 | 43.56518 | -116.21861 | 2854 ft | 14 kts | 115° |
| 2026-04-26 16:13 | 43.56480 | -116.21748 | 2854 ft | 12 kts | 115° |
| 2026-04-26 16:13 | 43.56442 | -116.21640 | 2859 ft | 13 kts | 114° |
| 2026-04-26 16:14 | 43.56434 | -116.21614 | 2859 ft | 0 kts | 114° |
| 2026-04-26 16:14 | 43.56432 | -116.21608 | 2859 ft | 2 kts | 114° |
| 2026-04-26 16:15 | 43.56420 | -116.21571 | 2857 ft | 6 kts | 114° |
| 2026-04-26 16:15 | 43.56399 | -116.21508 | 2862 ft | 8 kts | 115° |
| 2026-04-26 16:15 | 43.56370 | -116.21427 | 2865 ft | 11 kts | 114° |
| 2026-04-26 16:16 | 43.56292 | -116.21196 | 2869 ft | 12 kts | 116° |
| 2026-04-26 16:16 | 43.56262 | -116.21111 | 2871 ft | 8 kts | 115° |
| 2026-04-26 16:16 | 43.56234 | -116.21026 | 2872 ft | 12 kts | 114° |
| 2026-04-26 16:16 | 43.56194 | -116.20908 | 2870 ft | 13 kts | 117° |
| 2026-04-26 16:17 | 43.56128 | -116.20874 | 2870 ft | 10 kts | 202° |
| 2026-04-26 16:17 | 43.56045 | -116.20928 | 2868 ft | 15 kts | 204° |
| 2026-04-26 16:17 | 43.55973 | -116.20973 | 2870 ft | 8 kts | 205° |
| 2026-04-26 16:17 | 43.55913 | -116.20998 | 2872 ft | 8 kts | 198° |
| 2026-04-26 16:18 | 43.55907 | -116.21056 | 2872 ft | 5 kts | 292° |
| 2026-04-26 16:18 | 43.56312 | -116.22237 | 2856 ft | 130 kts | 295° |
| 2026-04-26 16:19 | 43.57123 | -116.24735 | 3649 ft | 148 kts | 292° |
| 2026-04-26 16:19 | 43.57513 | -116.26059 | 4163 ft | 153 kts | 291° |
| 2026-04-26 16:19 | 43.58280 | -116.28777 | 4344 ft | 211 kts | 291° |
| 2026-04-26 16:20 | 43.59025 | -116.31485 | 5005 ft | 243 kts | 288° |
| 2026-04-26 16:20 | 43.58271 | -116.35986 | 6041 ft | 262 kts | 222° |
| 2026-04-26 16:20 | 43.56816 | -116.37526 | 6570 ft | 265 kts | 215° |
| 2026-04-26 16:21 | 43.55157 | -116.38605 | 7086 ft | 267 kts | 188° |
| 2026-04-26 16:21 | 43.53332 | -116.38295 | 7682 ft | 269 kts | 155° |
| 2026-04-26 16:21 | 43.51895 | -116.36663 | 8349 ft | 273 kts | 123° |
| 2026-04-26 16:21 | 43.51227 | -116.34230 | 9028 ft | 275 kts | 101° |
| 2026-04-26 16:22 | 43.50884 | -116.31607 | 9579 ft | 280 kts | 99° |
| 2026-04-26 16:22 | 43.50578 | -116.28992 | 10092 ft | 282 kts | 98° |
| 2026-04-26 16:22 | 43.50305 | -116.26302 | 10596 ft | 285 kts | 97° |
| 2026-04-26 16:22 | 43.50048 | -116.23588 | 11099 ft | 287 kts | 97° |
| 2026-04-26 16:23 | 43.49777 | -116.20801 | 11606 ft | 301 kts | 97° |
| 2026-04-26 16:23 | 43.49492 | -116.17889 | 12073 ft | 313 kts | 97° |
| 2026-04-26 16:23 | 43.49188 | -116.14865 | 12542 ft | 323 kts | 98° |
| 2026-04-26 16:23 | 43.48855 | -116.11765 | 13008 ft | 331 kts | 98° |
| 2026-04-26 16:24 | 43.48509 | -116.08606 | 13469 ft | 336 kts | 98° |
| 2026-04-26 16:24 | 43.48206 | -116.05408 | 13924 ft | 338 kts | 97° |
| 2026-04-26 16:24 | 43.47818 | -116.02253 | 14369 ft | 340 kts | 102° |
| 2026-04-26 16:24 | 43.47217 | -115.99098 | 14817 ft | 340 kts | 107° |
| 2026-04-26 16:25 | 43.46473 | -115.95997 | 15233 ft | 344 kts | 109° |
| 2026-04-26 16:25 | 43.45633 | -115.92895 | 15608 ft | 348 kts | 111° |
| 2026-04-26 16:25 | 43.44734 | -115.89786 | 15983 ft | 351 kts | 112° |
| 2026-04-26 16:25 | 43.43810 | -115.86658 | 16370 ft | 355 kts | 112° |
| 2026-04-26 16:26 | 43.42867 | -115.83509 | 16733 ft | 357 kts | 112° |
| 2026-04-26 16:26 | 43.42245 | -115.81407 | 16971 ft | 359 kts | 112° |
| 2026-04-26 16:26 | 43.41014 | -115.77165 | 17476 ft | 362 kts | 111° |
| 2026-04-26 16:26 | 43.40082 | -115.73940 | 17849 ft | 364 kts | 111° |
| 2026-04-26 16:27 | 43.39148 | -115.70697 | 18222 ft | 365 kts | 111° |
| 2026-04-26 16:27 | 43.38206 | -115.67444 | 18594 ft | 367 kts | 112° |
| 2026-04-26 16:27 | 43.37242 | -115.64197 | 18965 ft | 368 kts | 112° |
| 2026-04-26 16:27 | 43.36288 | -115.60933 | 19330 ft | 368 kts | 111° |
| 2026-04-26 16:28 | 43.35341 | -115.57660 | 19708 ft | 369 kts | 111° |
| 2026-04-26 16:28 | 43.34836 | -115.55938 | 19903 ft | 369 kts | 112° |
| 2026-04-26 16:28 | 43.33879 | -115.52721 | 20269 ft | 369 kts | 112° |
| 2026-04-26 16:29 | 43.32925 | -115.49443 | 20641 ft | 369 kts | 111° |
| 2026-04-26 16:29 | 43.31969 | -115.46172 | 21010 ft | 369 kts | 112° |
| 2026-04-26 16:29 | 43.30995 | -115.42910 | 21379 ft | 369 kts | 112° |
| 2026-04-26 16:29 | 43.30036 | -115.39646 | 21747 ft | 368 kts | 111° |
| 2026-04-26 16:30 | 43.29060 | -115.36404 | 22115 ft | 367 kts | 114° |
| 2026-04-26 16:30 | 43.27946 | -115.33256 | 22480 ft | 366 kts | 117° |
| 2026-04-26 16:30 | 43.26771 | -115.30158 | 22793 ft | 367 kts | 117° |
| 2026-04-26 16:30 | 43.25575 | -115.27067 | 23087 ft | 367 kts | 118° |
| 2026-04-26 16:31 | 43.24383 | -115.24020 | 23379 ft | 368 kts | 118° |
| 2026-04-26 16:31 | 43.23169 | -115.20929 | 23674 ft | 368 kts | 118° |
| 2026-04-26 16:31 | 43.21956 | -115.17844 | 23971 ft | 368 kts | 118° |
| 2026-04-26 16:31 | 43.20761 | -115.14741 | 24265 ft | 368 kts | 117° |
| 2026-04-26 16:32 | 43.19576 | -115.11635 | 24560 ft | 367 kts | 117° |
| 2026-04-26 16:32 | 43.18797 | -115.09580 | 24760 ft | 367 kts | 117° |
| 2026-04-26 16:32 | 43.17200 | -115.05445 | 25113 ft | 367 kts | 118° |
| 2026-04-26 16:32 | 43.16001 | -115.02355 | 25355 ft | 368 kts | 117° |
| 2026-04-26 16:33 | 43.14814 | -114.99248 | 25608 ft | 368 kts | 118° |
| 2026-04-26 16:33 | 43.13628 | -114.96199 | 25853 ft | 368 kts | 118° |
| 2026-04-26 16:33 | 43.12423 | -114.93102 | 26100 ft | 368 kts | 117° |
| 2026-04-26 16:33 | 43.11236 | -114.90001 | 26347 ft | 368 kts | 118° |
| 2026-04-26 16:34 | 43.10034 | -114.86911 | 26603 ft | 368 kts | 118° |
| 2026-04-26 16:34 | 43.08829 | -114.83830 | 26841 ft | 367 kts | 118° |
| 2026-04-26 16:34 | 43.07631 | -114.80752 | 27081 ft | 366 kts | 117° |
| 2026-04-26 16:34 | 43.06448 | -114.77673 | 27334 ft | 365 kts | 118° |
| 2026-04-26 16:35 | 43.05256 | -114.74612 | 27578 ft | 364 kts | 118° |
| 2026-04-26 16:35 | 43.04078 | -114.71604 | 27814 ft | 363 kts | 118° |
| 2026-04-26 16:35 | 43.02884 | -114.68559 | 28014 ft | 364 kts | 118° |
| 2026-04-26 16:35 | 43.01689 | -114.65513 | 28205 ft | 364 kts | 118° |
| 2026-04-26 16:36 | 43.00494 | -114.62466 | 28402 ft | 363 kts | 118° |
| 2026-04-26 16:36 | 42.99314 | -114.59417 | 28600 ft | 363 kts | 118° |
| 2026-04-26 16:36 | 42.98127 | -114.56375 | 28798 ft | 363 kts | 118° |
| 2026-04-26 16:36 | 42.96937 | -114.53335 | 28944 ft | 364 kts | 118° |
| 2026-04-26 16:37 | 42.94537 | -114.47210 | 29000 ft | 373 kts | 118° |
| 2026-04-26 16:37 | 42.92464 | -114.41917 | 29011 ft | 382 kts | 118° |
| 2026-04-26 16:38 | 42.89512 | -114.34382 | 29017 ft | 393 kts | 118° |
| 2026-04-26 16:38 | 42.86905 | -114.27723 | 29016 ft | 403 kts | 118° |
| 2026-04-26 16:39 | 42.84199 | -114.20931 | 29014 ft | 412 kts | 118° |
| 2026-04-26 16:39 | 42.81484 | -114.14067 | 29010 ft | 416 kts | 118° |
| 2026-04-26 16:40 | 42.78714 | -114.07122 | 29002 ft | 418 kts | 118° |
| 2026-04-26 16:40 | 42.75927 | -114.00175 | 29002 ft | 418 kts | 118° |
| 2026-04-26 16:41 | 42.73153 | -113.93208 | 28998 ft | 419 kts | 118° |
| 2026-04-26 16:41 | 42.70361 | -113.86292 | 28997 ft | 420 kts | 118° |
| 2026-04-26 16:42 | 42.67568 | -113.79311 | 28997 ft | 420 kts | 118° |
| 2026-04-26 16:42 | 42.64753 | -113.72359 | 28999 ft | 420 kts | 118° |
| 2026-04-26 16:43 | 42.61937 | -113.65410 | 28997 ft | 420 kts | 119° |
| 2026-04-26 16:43 | 42.59141 | -113.58509 | 29001 ft | 420 kts | 118° |
| 2026-04-26 16:44 | 42.56329 | -113.51564 | 28998 ft | 420 kts | 118° |
| 2026-04-26 16:44 | 42.53515 | -113.44607 | 28997 ft | 421 kts | 118° |
| 2026-04-26 16:45 | 42.50696 | -113.37637 | 28997 ft | 422 kts | 118° |
| 2026-04-26 16:45 | 42.47898 | -113.30711 | 28997 ft | 422 kts | 118° |
| 2026-04-26 16:46 | 42.45044 | -113.23780 | 28996 ft | 421 kts | 119° |
| 2026-04-26 16:46 | 42.42205 | -113.16831 | 28999 ft | 422 kts | 119° |
| 2026-04-26 16:47 | 42.39332 | -113.09888 | 28997 ft | 424 kts | 118° |
| 2026-04-26 16:47 | 42.36448 | -113.02908 | 28998 ft | 425 kts | 119° |
| 2026-04-26 16:48 | 42.33571 | -112.95926 | 28998 ft | 425 kts | 119° |
| 2026-04-26 16:48 | 42.30671 | -112.88962 | 29000 ft | 425 kts | 119° |
| 2026-04-26 16:49 | 42.27775 | -112.82011 | 28997 ft | 424 kts | 119° |
| 2026-04-26 16:49 | 42.24885 | -112.75071 | 29000 ft | 424 kts | 119° |
| 2026-04-26 16:50 | 42.22012 | -112.68194 | 28997 ft | 423 kts | 119° |
| 2026-04-26 16:50 | 42.19122 | -112.61277 | 28997 ft | 423 kts | 119° |
| 2026-04-26 16:51 | 42.16236 | -112.54364 | 29000 ft | 423 kts | 119° |
| 2026-04-26 16:51 | 42.13351 | -112.47448 | 28998 ft | 424 kts | 119° |
| 2026-04-26 16:52 | 42.11439 | -112.42861 | 29000 ft | 424 kts | 119° |
| 2026-04-26 16:52 | 42.07550 | -112.33672 | 28997 ft | 424 kts | 119° |
| 2026-04-26 16:53 | 42.04629 | -112.26774 | 29001 ft | 424 kts | 120° |
| 2026-04-26 16:53 | 42.01720 | -112.19898 | 29000 ft | 422 kts | 120° |
| 2026-04-26 16:54 | 41.98801 | -112.13090 | 29000 ft | 425 kts | 120° |
| 2026-04-26 16:54 | 41.95877 | -112.06192 | 28998 ft | 424 kts | 120° |
| 2026-04-26 16:55 | 41.92931 | -111.99345 | 28999 ft | 423 kts | 120° |
| 2026-04-26 16:55 | 41.90013 | -111.92498 | 28997 ft | 422 kts | 120° |
| 2026-04-26 16:56 | 41.85634 | -111.82310 | 28999 ft | 422 kts | 120° |
| 2026-04-26 16:57 | 41.82691 | -111.75478 | 28996 ft | 424 kts | 120° |
| 2026-04-26 16:57 | 41.78243 | -111.65144 | 29000 ft | 427 kts | 120° |
| 2026-04-26 16:58 | 41.76281 | -111.60585 | 29002 ft | 426 kts | 120° |
| 2026-04-26 16:59 | 41.70824 | -111.48000 | 29000 ft | 427 kts | 120° |
| 2026-04-26 17:00 | 41.64826 | -111.34259 | 28999 ft | 429 kts | 120° |
| 2026-04-26 17:00 | 41.60332 | -111.24026 | 28998 ft | 426 kts | 120° |
| 2026-04-26 17:01 | 41.57342 | -111.17190 | 28999 ft | 426 kts | 120° |
| 2026-04-26 17:01 | 41.54324 | -111.10386 | 28999 ft | 426 kts | 120° |
| 2026-04-26 17:02 | 41.51356 | -111.03608 | 29000 ft | 426 kts | 120° |
| 2026-04-26 17:02 | 41.48344 | -110.96807 | 28999 ft | 426 kts | 121° |
| 2026-04-26 17:03 | 41.45319 | -110.89991 | 28998 ft | 427 kts | 121° |
| 2026-04-26 17:03 | 41.42291 | -110.83166 | 29002 ft | 428 kts | 121° |
| 2026-04-26 17:04 | 41.39286 | -110.76390 | 28999 ft | 427 kts | 120° |
| 2026-04-26 17:04 | 41.36267 | -110.69575 | 28998 ft | 427 kts | 120° |
| 2026-04-26 17:05 | 41.33251 | -110.62771 | 28998 ft | 427 kts | 121° |
| 2026-04-26 17:05 | 41.30193 | -110.56006 | 28997 ft | 427 kts | 121° |
| 2026-04-26 17:06 | 41.27173 | -110.49275 | 29001 ft | 427 kts | 121° |
| 2026-04-26 17:06 | 41.24123 | -110.42494 | 29000 ft | 427 kts | 121° |
| 2026-04-26 17:07 | 41.21061 | -110.35744 | 29017 ft | 427 kts | 121° |
| 2026-04-26 17:07 | 41.18005 | -110.28984 | 29012 ft | 427 kts | 121° |
| 2026-04-26 17:08 | 41.14963 | -110.22274 | 29025 ft | 427 kts | 121° |
| 2026-04-26 17:08 | 41.11890 | -110.15522 | 29023 ft | 428 kts | 121° |
| 2026-04-26 17:09 | 41.09826 | -110.11008 | 29024 ft | 428 kts | 121° |
| 2026-04-26 17:09 | 41.05728 | -110.02019 | 29052 ft | 428 kts | 121° |
| 2026-04-26 17:10 | 41.02654 | -109.95267 | 29049 ft | 427 kts | 121° |
| 2026-04-26 17:10 | 40.99601 | -109.88575 | 29050 ft | 428 kts | 121° |
| 2026-04-26 17:11 | 40.96523 | -109.81828 | 29054 ft | 428 kts | 121° |
| 2026-04-26 17:11 | 40.93445 | -109.75086 | 29054 ft | 427 kts | 121° |
| 2026-04-26 17:12 | 40.88821 | -109.65087 | 29047 ft | 427 kts | 121° |
| 2026-04-26 17:13 | 40.84159 | -109.55034 | 29046 ft | 428 kts | 121° |
| 2026-04-26 17:14 | 40.79464 | -109.44942 | 29052 ft | 430 kts | 121° |
| 2026-04-26 17:14 | 40.74776 | -109.34912 | 29052 ft | 429 kts | 121° |
| 2026-04-26 17:15 | 40.70072 | -109.24885 | 29053 ft | 429 kts | 122° |
| 2026-04-26 17:16 | 40.66932 | -109.18206 | 29048 ft | 428 kts | 122° |
| 2026-04-26 17:16 | 40.63838 | -109.11577 | 29048 ft | 428 kts | 122° |
| 2026-04-26 17:17 | 40.60710 | -109.04910 | 29050 ft | 428 kts | 122° |
| 2026-04-26 17:17 | 40.57584 | -108.98250 | 29050 ft | 428 kts | 122° |
| 2026-04-26 17:18 | 40.54473 | -108.91618 | 29048 ft | 426 kts | 122° |
| 2026-04-26 17:18 | 40.51352 | -108.85049 | 29050 ft | 427 kts | 122° |
| 2026-04-26 17:19 | 40.46643 | -108.75149 | 29049 ft | 425 kts | 122° |
| 2026-04-26 17:19 | 40.43503 | -108.68553 | 29049 ft | 427 kts | 122° |
| 2026-04-26 17:20 | 40.41403 | -108.64186 | 29053 ft | 428 kts | 122° |
| 2026-04-26 17:20 | 40.37197 | -108.55394 | 29050 ft | 427 kts | 122° |
| 2026-04-26 17:21 | 40.34043 | -108.48810 | 29050 ft | 426 kts | 122° |
| 2026-04-26 17:21 | 40.30888 | -108.42258 | 29047 ft | 425 kts | 122° |
| 2026-04-26 17:22 | 40.28254 | -108.36815 | 29052 ft | 426 kts | 122° |
| 2026-04-26 17:22 | 40.24572 | -108.29195 | 29049 ft | 425 kts | 122° |
| 2026-04-26 17:23 | 40.21951 | -108.23762 | 29050 ft | 425 kts | 122° |
| 2026-04-26 17:23 | 40.18793 | -108.17222 | 29044 ft | 426 kts | 122° |
| 2026-04-26 17:24 | 40.15623 | -108.10654 | 29051 ft | 427 kts | 122° |
| 2026-04-26 17:24 | 40.11940 | -108.03020 | 29054 ft | 428 kts | 122° |
| 2026-04-26 17:25 | 40.09270 | -107.97529 | 29050 ft | 427 kts | 123° |
| 2026-04-26 17:25 | 40.05984 | -107.91148 | 29046 ft | 427 kts | 126° |
| 2026-04-26 17:26 | 40.02381 | -107.84997 | 29047 ft | 426 kts | 128° |
| 2026-04-26 17:26 | 39.98679 | -107.78960 | 29050 ft | 426 kts | 128° |
| 2026-04-26 17:27 | 39.94982 | -107.72845 | 28601 ft | 433 kts | 128° |
| 2026-04-26 17:27 | 39.93155 | -107.69806 | 28189 ft | 432 kts | 128° |
| 2026-04-26 17:27 | 39.91301 | -107.66723 | 27728 ft | 433 kts | 128° |
| 2026-04-26 17:28 | 39.89439 | -107.63634 | 27296 ft | 434 kts | 128° |
| 2026-04-26 17:28 | 39.87553 | -107.60557 | 26871 ft | 436 kts | 128° |
| 2026-04-26 17:28 | 39.85671 | -107.57446 | 26406 ft | 438 kts | 128° |
| 2026-04-26 17:28 | 39.83789 | -107.54327 | 25962 ft | 437 kts | 128° |
| 2026-04-26 17:29 | 39.81920 | -107.51278 | 25509 ft | 425 kts | 129° |
| 2026-04-26 17:29 | 39.80710 | -107.49302 | 25207 ft | 418 kts | 128° |
| 2026-04-26 17:29 | 39.78338 | -107.45380 | 24581 ft | 407 kts | 128° |
| 2026-04-26 17:29 | 39.76590 | -107.42533 | 24129 ft | 400 kts | 129° |
| 2026-04-26 17:30 | 39.74885 | -107.39751 | 23679 ft | 397 kts | 128° |
| 2026-04-26 17:30 | 39.73184 | -107.36937 | 23224 ft | 395 kts | 128° |
| 2026-04-26 17:30 | 39.71476 | -107.34153 | 22774 ft | 393 kts | 128° |
| 2026-04-26 17:30 | 39.69774 | -107.31393 | 22325 ft | 390 kts | 128° |
| 2026-04-26 17:31 | 39.68095 | -107.28651 | 21875 ft | 387 kts | 128° |
| 2026-04-26 17:31 | 39.66437 | -107.25918 | 21425 ft | 383 kts | 128° |
| 2026-04-26 17:31 | 39.64782 | -107.23230 | 20974 ft | 379 kts | 128° |
| 2026-04-26 17:31 | 39.63139 | -107.20567 | 20524 ft | 377 kts | 129° |
| 2026-04-26 17:32 | 39.61505 | -107.17924 | 20074 ft | 373 kts | 128° |
| 2026-04-26 17:32 | 39.59902 | -107.15306 | 19625 ft | 368 kts | 128° |
| 2026-04-26 17:32 | 39.58336 | -107.12746 | 19181 ft | 367 kts | 128° |
| 2026-04-26 17:32 | 39.56746 | -107.10166 | 18730 ft | 366 kts | 128° |
| 2026-04-26 17:33 | 39.55162 | -107.07598 | 18278 ft | 364 kts | 129° |
| 2026-04-26 17:33 | 39.53586 | -107.05049 | 17830 ft | 361 kts | 128° |
| 2026-04-26 17:33 | 39.52030 | -107.02527 | 17379 ft | 357 kts | 128° |
| 2026-04-26 17:34 | 39.48938 | -106.97523 | 16475 ft | 352 kts | 128° |
| 2026-04-26 17:34 | 39.47428 | -106.95076 | 16020 ft | 344 kts | 128° |
| 2026-04-26 17:34 | 39.45968 | -106.92712 | 15570 ft | 338 kts | 128° |
| 2026-04-26 17:34 | 39.44460 | -106.90420 | 15107 ft | 333 kts | 138° |
| 2026-04-26 17:35 | 39.42463 | -106.88995 | 14679 ft | 330 kts | 166° |
| 2026-04-26 17:35 | 39.40201 | -106.88593 | 14250 ft | 326 kts | 175° |
| 2026-04-26 17:35 | 39.37952 | -106.88481 | 13801 ft | 321 kts | 186° |
| 2026-04-26 17:35 | 39.35801 | -106.89124 | 13367 ft | 316 kts | 197° |
| 2026-04-26 17:36 | 39.33714 | -106.89954 | 12922 ft | 312 kts | 197° |
| 2026-04-26 17:36 | 39.31654 | -106.90792 | 12482 ft | 308 kts | 198° |
| 2026-04-26 17:36 | 39.29632 | -106.91521 | 12099 ft | 303 kts | 187° |
| 2026-04-26 17:36 | 39.27540 | -106.91447 | 11541 ft | 304 kts | 167° |
| 2026-04-26 17:37 | 39.25544 | -106.90561 | 10981 ft | 305 kts | 155° |
| 2026-04-26 17:37 | 39.23643 | -106.89380 | 10540 ft | 302 kts | 154° |
| 2026-04-26 17:37 | 39.21826 | -106.88180 | 10543 ft | 281 kts | 143° |
| 2026-04-26 17:38 | 39.20991 | -106.84084 | 10603 ft | 245 kts | 58° |
| 2026-04-26 17:38 | 39.22188 | -106.82691 | 10587 ft | 227 kts | 24° |
| 2026-04-26 17:38 | 39.23673 | -106.82421 | 10335 ft | 209 kts | 351° |
| 2026-04-26 17:38 | 39.24993 | -106.82899 | 10207 ft | 195 kts | 338° |
| 2026-04-26 17:39 | 39.26237 | -106.83616 | 10120 ft | 195 kts | 338° |
| 2026-04-26 17:39 | 39.27500 | -106.84263 | 10082 ft | 195 kts | 339° |
| 2026-04-26 17:39 | 39.28553 | -106.85262 | 9996 ft | 184 kts | 301° |
| 2026-04-26 17:39 | 39.28772 | -106.86821 | 9517 ft | 182 kts | 256° |
| 2026-04-26 17:40 | 39.27996 | -106.88006 | 8988 ft | 180 kts | 197° |
| 2026-04-26 17:40 | 39.27189 | -106.88144 | 8666 ft | 174 kts | 184° |
| 2026-04-26 17:40 | 39.25640 | -106.88214 | 8175 ft | 158 kts | 177° |
| 2026-04-26 17:40 | 39.24617 | -106.87978 | 7939 ft | 145 kts | 162° |
| 2026-04-26 17:41 | 39.23691 | -106.87525 | 7784 ft | 140 kts | 160° |
| 2026-04-26 17:41 | 39.22777 | -106.87103 | 7723 ft | 129 kts | 162° |
| 2026-04-26 17:41 | 39.22145 | -106.86804 | 7767 ft | 62 kts | 160° |
| 2026-04-26 17:41 | 39.21930 | -106.86694 | 7779 ft | 14 kts | 147° |
| 2026-04-26 17:42 | 39.21887 | -106.86638 | 7792 ft | 5 kts | 121° |
| 2026-04-26 17:42 | 39.21879 | -106.86611 | 7786 ft | 3 kts | 98° |
| 2026-04-26 17:42 | 39.21886 | -106.86585 | 7793 ft | 2 kts | 47° |
| 2026-04-26 17:42 | 39.21899 | -106.86566 | 7786 ft | 7 kts | 51° |
| 2026-04-26 17:43 | 39.21920 | -106.86502 | 7788 ft | 6 kts | 72° |
| 2026-04-26 17:43 | 39.21926 | -106.86480 | 7785 ft | 0 kts | 73° |
| 2026-04-26 17:43 | 39.21928 | -106.86472 | 7781 ft | 1 kts | 74° |